Estación de Alto del Carmen

Ultimos registro cada 15 minutos 46
Estación Fecha / Hora Temperatura Humedad Lluvia Velocidad Dirección Radiación Presion
46 Alto del Carmen 10-05-2026 11:15 26,6 9 0 0,9 3 617 1012,4
45 Alto del Carmen 10-05-2026 11:00 25,3 11 0 0,4 5 592 1012,5
44 Alto del Carmen 10-05-2026 10:45 23,7 16 0 0,9 20 564 1012,8
43 Alto del Carmen 10-05-2026 10:30 20,6 22 0 0,4 21 534 1012,9
42 Alto del Carmen 10-05-2026 10:15 15,7 36 0 0,9 21 499 1013,2
41 Alto del Carmen 10-05-2026 10:00 9,5 47 0 0 21 457 1012,8
40 Alto del Carmen 10-05-2026 09:45 7,2 60 0 0,4 21 23 1012,9
39 Alto del Carmen 10-05-2026 09:30 6,5 65 0 0 21 23 1013
38 Alto del Carmen 10-05-2026 09:15 5,8 71 0 0,9 21 21 1012,9
37 Alto del Carmen 10-05-2026 09:00 5,6 70 0 0 21 19 1012,8
36 Alto del Carmen 10-05-2026 08:45 5,2 72 0 0,4 21 19 1012,9
35 Alto del Carmen 10-05-2026 08:30 4,8 73 0 0 21 16 1012,7
34 Alto del Carmen 10-05-2026 08:15 4,4 75 0 0 21 14 1012,6
33 Alto del Carmen 10-05-2026 08:00 4,3 75 0 0,4 21 12 1012,4
32 Alto del Carmen 10-05-2026 07:45 4,5 74 0 0,4 21 11 1012,3
31 Alto del Carmen 10-05-2026 07:30 4,6 73 0 0,4 21 7 1012,3
30 Alto del Carmen 10-05-2026 07:15 4,7 73 0 0,4 21 0 1012,4
29 Alto del Carmen 10-05-2026 07:00 5,2 73 0 0,9 21 0 1012,3
28 Alto del Carmen 10-05-2026 06:45 4,9 73 0 0 21 0 1012
27 Alto del Carmen 10-05-2026 06:30 4,4 77 0 0,9 10 0 1012,2
26 Alto del Carmen 10-05-2026 06:15 4,6 77 0 0,4 10 0 1012,1
25 Alto del Carmen 10-05-2026 06:00 5,1 76 0 0 10 0 1011,8
24 Alto del Carmen 10-05-2026 05:45 5,3 76 0 0,4 10 0 1012
23 Alto del Carmen 10-05-2026 05:30 5,7 76 0 0 10 0 1011,6
22 Alto del Carmen 10-05-2026 05:15 5,9 77 0 0,4 10 0 1011,7
21 Alto del Carmen 10-05-2026 05:00 5,6 80 0 0,9 10 0 1011,9
20 Alto del Carmen 10-05-2026 04:45 5,4 79 0 0 5 0 1011,9
19 Alto del Carmen 10-05-2026 04:30 5,7 81 0 0 5 0 1011,6
18 Alto del Carmen 10-05-2026 04:15 5,4 80 0 0 3 0 1011,8
17 Alto del Carmen 10-05-2026 04:00 5,9 80 0 0,4 3 0 1011,6
16 Alto del Carmen 10-05-2026 03:45 6,1 80 0 0,9 1 0 1011,6
15 Alto del Carmen 10-05-2026 03:30 6,3 81 0 0,4 1 0 1011,6
14 Alto del Carmen 10-05-2026 03:15 6,4 80 0 0,4 1 0 1011,6
13 Alto del Carmen 10-05-2026 03:00 6,6 80 0 0,9 1 0 1011,6
12 Alto del Carmen 10-05-2026 02:45 6,9 81 0 0 1 0 1011,6
11 Alto del Carmen 10-05-2026 02:30 6,8 81 0 0,9 1 0 1011,7
10 Alto del Carmen 10-05-2026 02:15 6,8 82 0 0 1 0 1011,9
9 Alto del Carmen 10-05-2026 02:00 6,7 81 0 0,4 1 0 1012
8 Alto del Carmen 10-05-2026 01:45 6,9 82 0 0,4 338 0 1011,9
7 Alto del Carmen 10-05-2026 01:30 6,8 81 0 0,4 338 0 1011,8
6 Alto del Carmen 10-05-2026 01:15 7,3 80 0 0,4 329 0 1012
5 Alto del Carmen 10-05-2026 01:00 7,3 82 0 0,4 329 0 1011,9
4 Alto del Carmen 10-05-2026 00:45 7,4 79 0 0 329 0 1011,9
3 Alto del Carmen 10-05-2026 00:30 8,1 81 0 0 329 0 1011,9
2 Alto del Carmen 10-05-2026 00:15 8,1 81 0 0 329 0 1012
1 Alto del Carmen 10-05-2026 00:00 8,2 83 0 1,8 329 0 1012